Time;durP1;ratioP1;P1;durP2;ratioP2;P2;SDS_P1;SDS_P2;PMS_P1;PMS_P2;Temp;Humidity;BMP_temperature;BMP_pressure;BME280_temperature;BME280_humidity;BME280_pressure;Samples;Min_cycle;Max_cycle;Signal;HPM_P1;HPM_P2
2022/12/23 00:01:15;;;;;;;4.22;1.58;;;;;;;7.36;100.00;97327.66;4202376;28;20052;-79
2022/12/23 00:03:15;;;;;;;3.58;1.88;;;;;;;7.35;100.00;97324.13;4200966;28;20051;-79
2022/12/23 00:05:16;;;;;;;2.60;1.70;;;;;;;7.31;100.00;97326.88;4200990;28;20044;-79
2022/12/23 00:07:16;;;;;;;1.60;1.35;;;;;;;7.31;100.00;97332.38;4202672;28;20241;-79
2022/12/23 00:09:16;;;;;;;1.77;1.15;;;;;;;7.30;100.00;97330.00;4201055;28;20036;-78
2022/12/23 00:11:19;;;;;;;1.58;1.13;;;;;;;7.26;100.00;97326.44;4201779;28;20720;-79
2022/12/23 00:15:38;;;;;;;3.20;1.45;;;;;;;7.29;100.00;97325.69;4202034;28;20394;-78
2022/12/23 00:17:44;;;;;;;2.55;1.70;;;;;;;7.23;100.00;97330.75;4201155;28;20053;-79
2022/12/23 00:19:44;;;;;;;2.55;1.60;;;;;;;7.25;100.00;97328.41;4200946;28;20036;-78
2022/12/23 00:21:44;;;;;;;3.13;1.70;;;;;;;7.28;100.00;97324.09;4187217;28;20243;-79
2022/12/23 00:23:46;;;;;;;4.65;1.60;;;;;;;7.29;100.00;97326.47;4199932;28;20309;-78
2022/12/23 00:25:47;;;;;;;2.83;1.42;;;;;;;7.31;100.00;97326.88;4201724;28;20062;-78
2022/12/23 00:28:00;;;;;;;2.67;1.50;;;;;;;7.28;100.00;97316.66;4202722;28;20127;-78
2022/12/23 00:30:00;;;;;;;;;;;;;;;7.31;100.00;97323.34;4192281;28;20128;-79
2022/12/23 00:32:00;;;;;;;2.30;1.35;;;;;;;7.24;100.00;97307.56;4199986;28;20154;-78
2022/12/23 00:34:01;;;;;;;1.55;0.90;;;;;;;7.21;100.00;97315.81;4199956;28;20048;-79
2022/12/23 00:36:02;;;;;;;1.35;1.17;;;;;;;7.17;100.00;97323.25;4202140;28;20492;-78
2022/12/23 00:38:02;;;;;;;3.35;1.80;;;;;;;7.14;100.00;97324.03;4193113;28;20140;-77
2022/12/23 00:44:41;;;;;;;14.25;5.55;;;;;;;7.07;100.00;97326.72;4201698;28;20051;-79
2022/12/23 00:46:41;;;;;;;6.50;2.55;;;;;;;7.11;100.00;97319.25;4200610;28;20043;-78
2022/12/23 00:51:00;;;;;;;5.85;2.70;;;;;;;7.07;100.00;97321.22;4200621;28;20362;-79
2022/12/23 00:53:00;;;;;;;5.03;1.67;;;;;;;7.07;100.00;97316.50;4200334;28;20195;-79
2022/12/23 00:55:01;;;;;;;5.38;3.00;;;;;;;7.13;100.00;97323.22;4201938;28;20156;-79
2022/12/23 00:57:01;;;;;;;3.67;1.83;;;;;;;7.13;100.00;97325.97;4200021;28;20151;-79
2022/12/23 00:59:02;;;;;;;3.10;1.60;;;;;;;7.12;100.00;97321.66;4202271;28;20371;-79
2022/12/23 01:05:40;;;;;;;3.65;1.80;;;;;;;7.07;100.00;97318.47;4200186;28;20372;-78
2022/12/23 01:07:41;;;;;;;4.40;1.63;;;;;;;7.05;100.00;97321.59;4201956;28;20052;-79
2022/12/23 01:09:41;;;;;;;2.17;1.13;;;;;;;7.07;100.00;97332.22;4198966;28;20236;-79
2022/12/23 01:11:42;;;;;;;1.67;1.00;;;;;;;7.06;100.00;97323.19;4193844;28;20052;-79
2022/12/23 01:13:42;;;;;;;2.30;0.90;;;;;;;7.06;100.00;97312.19;4201838;28;20040;-79
2022/12/23 01:15:42;;;;;;;1.40;0.80;;;;;;;7.03;100.00;97307.44;4201683;28;20040;-79
2022/12/23 01:17:42;;;;;;;1.50;1.02;;;;;;;7.03;100.00;97302.75;4204802;28;20139;-79
2022/12/23 01:19:43;;;;;;;1.08;0.90;;;;;;;7.03;100.00;97302.75;4201539;28;20087;-79
2022/12/23 01:21:43;;;;;;;2.05;0.93;;;;;;;7.00;100.00;97300.75;4203286;28;20063;-79
2022/12/23 01:23:43;;;;;;;1.92;0.88;;;;;;;7.01;100.00;97305.06;4203552;28;20052;-79
2022/12/23 01:25:44;;;;;;;1.73;0.77;;;;;;;6.99;100.00;97292.88;4204201;28;20046;-78
2022/12/23 01:27:44;;;;;;;0.93;0.70;;;;;;;6.94;100.00;97299.50;4203139;28;20344;-79
2022/12/23 01:29:44;;;;;;;0.70;0.70;;;;;;;6.94;100.00;97310.50;4203192;28;20153;-79
2022/12/23 01:31:45;;;;;;;1.10;0.60;;;;;;;6.90;100.00;97301.47;4204079;28;20487;-79
2022/12/23 01:33:45;;;;;;;0.68;0.68;;;;;;;6.94;100.00;97315.22;4204299;28;20086;-79
2022/12/23 01:35:46;;;;;;;0.75;0.70;;;;;;;6.92;100.00;97315.59;4203899;28;20051;-78
2022/12/23 01:37:46;;;;;;;0.93;0.70;;;;;;;6.93;100.00;97319.16;4201238;28;20439;-79
2022/12/23 01:39:47;;;;;;;1.40;0.70;;;;;;;6.86;100.00;97316.34;4202281;28;20610;-78
2022/12/23 01:44:43;;;;;;;0.80;0.80;;;;;;;6.78;100.00;97301.75;4203812;28;20101;-77
2022/12/23 01:46:43;;;;;;;1.10;0.77;;;;;;;6.68;100.00;97296.97;4204547;28;20052;-79
2022/12/23 01:48:50;;;;;;;1.23;0.80;;;;;;;6.61;100.00;97297.69;4203294;28;20688;-79
2022/12/23 01:51:10;;;;;;;0.82;0.80;;;;;;;6.57;100.00;97298.84;4203229;28;20379;-78
2022/12/23 01:53:29;;;;;;;2.63;0.75;;;;;;;6.53;100.00;97296.06;4204269;28;20103;-79
2022/12/23 01:55:35;;;;;;;1.33;0.80;;;;;;;6.53;100.00;97307.06;4204905;28;20044;-79
2022/12/23 01:57:39;;;;;;;1.63;0.80;;;;;;;6.51;100.00;97298.41;4204932;28;20043;-78
2022/12/23 02:04:23;;;;;;;1.52;0.80;;;;;;;6.37;100.00;97279.03;4204150;28;20038;-78
2022/12/23 02:11:30;;;;;;;3.28;0.80;;;;;;;6.48;100.00;97296.44;4202999;28;20055;-79
2022/12/23 02:16:15;;;;;;;0.70;0.68;;;;;;;6.58;100.00;97303.19;4203382;28;20075;-79
2022/12/23 02:16:17;;;;;;;1.17;0.80;;;;;;;6.63;100.00;97302.84;4202702;28;20098;-79
2022/12/23 02:18:20;;;;;;;2.35;0.80;;;;;;;6.69;100.00;97302.06;4202314;28;20458;-79
2022/12/23 02:20:42;;;;;;;1.48;0.70;;;;;;;6.74;100.00;97309.97;4203323;28;20420;-78
2022/12/23 02:22:58;;;;;;;0.75;0.70;;;;;;;6.75;100.00;97310.78;4200714;28;20040;-78
2022/12/23 02:25:23;;;;;;;0.68;0.68;;;;;;;6.75;100.00;97319.03;4203798;28;20127;-78
2022/12/23 02:27:28;;;;;;;1.35;0.88;;;;;;;6.75;100.00;97321.75;4201110;28;20503;-78
2022/12/23 02:30:02;;;;;;;0.75;0.60;;;;;;;6.76;100.00;97321.38;4203051;28;20104;-79
2022/12/23 02:32:08;;;;;;;1.63;0.65;;;;;;;6.74;100.00;97322.94;4200101;28;20569;-77
2022/12/23 02:34:19;;;;;;;0.98;0.90;;;;;;;6.78;100.00;97334.75;4128939;28;20985;-78
2022/12/23 02:36:37;;;;;;;0.85;0.70;;;;;;;6.80;100.00;97343.41;4202071;28;20103;-78
2022/12/23 02:38:47;;;;;;;0.98;0.73;;;;;;;6.85;100.00;97350.50;4201703;28;20048;-78
2022/12/23 02:41:05;;;;;;;0.95;0.75;;;;;;;6.89;100.00;97354.88;4204237;28;20059;-79
2022/12/23 02:43:38;;;;;;;0.60;0.60;;;;;;;6.95;100.00;97344.28;4203296;28;20055;-79
2022/12/23 02:46:06;;;;;;;1.60;0.75;;;;;;;7.02;100.00;97344.34;4194653;28;20055;-78
2022/12/23 02:48:12;;;;;;;1.95;0.80;;;;;;;7.00;100.00;97347.50;4201845;28;20403;-78
2022/12/23 02:50:23;;;;;;;1.10;1.00;;;;;;;7.02;100.00;97345.13;4202060;28;20584;-79
2022/12/23 02:52:30;;;;;;;0.90;0.73;;;;;;;7.06;100.00;97339.69;4202690;28;20208;-79
2022/12/23 02:54:37;;;;;;;0.70;0.70;;;;;;;7.03;100.00;97327.50;4203000;28;20044;-79
2022/12/23 02:56:42;;;;;;;0.75;0.70;;;;;;;7.07;100.00;97345.97;4203960;28;20044;-78
2022/12/23 02:58:50;;;;;;;0.88;0.70;;;;;;;7.09;100.00;97341.66;4201934;28;20058;-78
2022/12/23 03:00:52;;;;;;;0.60;0.60;;;;;;;7.09;100.00;97338.91;4202564;28;20077;-78
2022/12/23 03:02:52;;;;;;;0.70;0.65;;;;;;;7.14;100.00;97357.03;4201973;28;20040;-79
2022/12/23 03:04:52;;;;;;;0.93;0.85;;;;;;;7.10;100.00;97354.22;4203340;28;20560;-78
2022/12/23 03:06:56;;;;;;;0.60;0.60;;;;;;;7.17;100.00;97353.50;4200307;28;20040;-78
2022/12/23 03:08:58;;;;;;;0.60;0.60;;;;;;;7.18;100.00;97346.81;4203059;28;20138;-78
2022/12/23 03:11:10;;;;;;;;;;;;;;;7.20;100.00;97355.47;4202978;28;20048;-78
2022/12/23 03:13:16;;;;;;;2.22;1.10;;;;;;;7.22;100.00;97348.44;4194527;28;20090;-79
2022/12/23 03:15:32;;;;;;;0.70;0.70;;;;;;;7.24;100.00;97348.84;4202159;28;20116;-79
2022/12/23 03:17:45;;;;;;;0.90;0.60;;;;;;;7.26;100.00;97352.00;4200923;28;20040;-79
2022/12/23 03:20:08;;;;;;;1.08;0.70;;;;;;;7.21;100.00;97349.63;4203617;28;20481;-79
2022/12/23 03:22:26;;;;;;;1.23;0.80;;;;;;;7.23;100.00;97346.47;4198580;28;20778;-78
2022/12/23 03:24:53;;;;;;;1.50;0.70;;;;;;;7.20;100.00;97344.47;4201773;28;20130;-78
2022/12/23 03:27:04;;;;;;;1.45;0.85;;;;;;;7.18;100.00;97342.09;4180945;28;20509;-78
2022/12/23 03:29:15;;;;;;;1.38;0.80;;;;;;;7.17;100.00;97337.00;4203502;28;20105;-79
2022/12/23 03:31:22;;;;;;;0.80;0.70;;;;;;;7.21;100.00;97337.81;4203157;28;20408;-79
2022/12/23 03:33:27;;;;;;;0.80;0.80;;;;;;;7.19;100.00;97340.16;4200703;28;20044;-79
2022/12/23 03:35:31;;;;;;;0.77;0.70;;;;;;;7.16;100.00;97330.72;4201286;28;20047;-79
2022/12/23 03:37:36;;;;;;;0.73;0.70;;;;;;;7.10;100.00;97328.69;4200245;28;20090;-79
2022/12/23 03:39:49;;;;;;;1.33;0.80;;;;;;;7.07;100.00;97333.00;4202329;28;20052;-79
2022/12/23 03:41:56;;;;;;;1.15;0.68;;;;;;;7.03;100.00;97330.25;4202107;28;20136;-79
2022/12/23 03:44:01;;;;;;;1.63;0.95;;;;;;;7.06;100.00;97331.44;4202207;28;20040;-79
2022/12/23 03:46:09;;;;;;;0.85;0.63;;;;;;;7.02;100.00;97327.84;4202252;28;20250;-78
2022/12/23 03:48:21;;;;;;;1.23;0.80;;;;;;;7.01;100.00;97331.78;4201431;28;20039;-78
2022/12/23 03:50:23;;;;;;;0.60;0.60;;;;;;;7.01;100.00;97335.31;4201799;28;20131;-79
2022/12/23 03:52:31;;;;;;;0.95;0.90;;;;;;;7.04;100.00;97340.06;4198890;28;20110;-79
2022/12/23 03:55:04;;;;;;;0.77;0.77;;;;;;;7.02;100.00;97341.59;4199900;28;20177;-79
2022/12/23 03:57:07;;;;;;;0.88;0.70;;;;;;;6.99;100.00;97347.88;4190818;28;20564;-79
2022/12/23 03:59:13;;;;;;;0.90;0.70;;;;;;;6.96;100.00;97348.66;4198559;28;20166;-78
2022/12/23 04:01:38;;;;;;;0.93;0.82;;;;;;;7.02;100.00;97352.59;4202308;28;20094;-79
2022/12/23 04:03:54;;;;;;;0.80;0.80;;;;;;;7.01;100.00;97353.78;4200190;28;20044;-79
2022/12/23 04:06:00;;;;;;;0.88;0.80;;;;;;;7.04;100.00;97348.31;4198864;28;20056;-79
2022/12/23 04:08:10;;;;;;;0.73;0.73;;;;;;;7.03;100.00;97352.25;4191935;28;20101;-79
2022/12/23 04:10:12;;;;;;;0.73;0.70;;;;;;;7.02;100.00;97349.84;4200409;28;20481;-78
2022/12/23 04:12:13;;;;;;;0.85;0.77;;;;;;;7.04;100.00;97351.06;4200945;28;20274;-78
2022/12/23 04:14:18;;;;;;;1.42;0.80;;;;;;;7.04;100.00;97350.28;4194198;28;20032;-78
2022/12/23 04:16:18;;;;;;;0.98;0.90;;;;;;;7.07;100.00;97344.00;4201884;28;20032;-78
2022/12/23 04:18:18;;;;;;;0.82;0.82;;;;;;;7.08;100.00;97353.03;4198637;28;20490;-78
2022/12/23 04:20:19;;;;;;;1.02;0.80;;;;;;;7.08;100.00;97348.34;4202238;28;20036;-78
2022/12/23 04:22:19;;;;;;;0.82;0.80;;;;;;;7.09;100.00;97349.91;4201673;28;20031;-78
2022/12/23 04:24:20;;;;;;;0.95;0.70;;;;;;;7.10;100.00;97350.69;4192627;28;20028;-78
2022/12/23 04:26:20;;;;;;;1.63;0.82;;;;;;;7.09;100.00;97360.91;4202141;28;21214;-79
2022/12/23 04:28:20;;;;;;;2.95;1.00;;;;;;;7.10;100.00;97356.19;4200994;28;20131;-79
2022/12/23 04:30:21;;;;;;;1.58;0.85;;;;;;;7.14;100.00;97360.56;4200609;28;20135;-78
2022/12/23 04:32:21;;;;;;;1.65;0.98;;;;;;;7.15;100.00;97367.63;4198213;28;20048;-79
2022/12/23 04:34:21;;;;;;;1.27;0.90;;;;;;;7.22;100.00;97364.16;4200499;28;20048;-79
2022/12/23 04:36:22;;;;;;;0.98;0.88;;;;;;;7.22;100.00;97364.94;4201266;28;20471;-79
2022/12/23 04:38:22;;;;;;;1.15;0.90;;;;;;;7.23;100.00;97368.47;4201058;28;20046;-79
2022/12/23 04:40:23;;;;;;;1.70;1.40;;;;;;;7.20;100.00;97366.47;4202435;28;20040;-78
2022/12/23 04:42:23;;;;;;;1.30;1.02;;;;;;;7.20;100.00;97360.97;4200885;28;20044;-79
2022/12/23 04:44:23;;;;;;;1.15;1.05;;;;;;;7.20;100.00;97370.06;4199388;28;20048;-79
2022/12/23 04:46:24;;;;;;;1.33;1.20;;;;;;;7.18;100.00;97377.88;4201769;28;20040;-79
2022/12/23 04:48:24;;;;;;;3.55;1.35;;;;;;;7.19;100.00;97370.41;4205519;28;20056;-79
2022/12/23 04:50:24;;;;;;;1.48;1.00;;;;;;;7.17;100.00;97378.25;4202647;28;20122;-79
2022/12/23 04:52:25;;;;;;;1.40;1.10;;;;;;;7.17;100.00;97383.75;4205315;28;20048;-79
2022/12/23 04:54:25;;;;;;;1.10;1.00;;;;;;;7.19;100.00;97384.94;4203333;28;20040;-79
2022/12/23 04:56:25;;;;;;;1.30;0.70;;;;;;;7.18;100.00;97388.09;4205774;28;20332;-79
2022/12/23 04:58:26;;;;;;;1.10;1.00;;;;;;;7.20;100.00;97394.81;4204985;28;20512;-79
2022/12/23 05:00:26;;;;;;;1.38;1.20;;;;;;;7.24;100.00;97395.59;4204758;28;20048;-78
2022/12/23 05:02:26;;;;;;;1.65;0.93;;;;;;;7.25;100.00;97394.44;4203511;28;20383;-79
2022/12/23 05:04:27;;;;;;;1.23;0.90;;;;;;;7.24;100.00;97392.06;4204539;28;20385;-79
2022/12/23 05:06:27;;;;;;;2.15;1.13;;;;;;;7.26;100.00;97392.47;4201384;28;20051;-79
2022/12/23 05:08:28;;;;;;;1.33;0.90;;;;;;;7.22;100.00;97395.22;4205176;28;20430;-79
2022/12/23 05:10:28;;;;;;;1.77;1.02;;;;;;;7.22;100.00;97392.47;4205831;28;20470;-79
2022/12/23 05:12:30;;;;;;;1.52;1.13;;;;;;;7.19;100.00;97384.16;4202432;28;20044;-79
2022/12/23 05:14:30;;;;;;;1.90;1.00;;;;;;;7.18;100.00;97379.84;4203576;28;20051;-78
2022/12/23 05:16:30;;;;;;;0.90;0.90;;;;;;;7.17;100.00;97381.00;4203281;28;20036;-79
2022/12/23 05:18:31;;;;;;;2.40;1.00;;;;;;;7.22;100.00;97378.69;4202851;28;20052;-78
2022/12/23 05:20:31;;;;;;;1.40;1.10;;;;;;;7.22;100.00;97378.69;4205391;28;20040;-78
2022/12/23 05:22:31;;;;;;;2.25;1.10;;;;;;;7.17;100.00;97375.50;4206393;28;20449;-79
2022/12/23 05:24:32;;;;;;;1.73;1.60;;;;;;;7.20;100.00;97375.53;4202443;28;20781;-79
2022/12/23 05:26:32;;;;;;;2.47;1.60;;;;;;;7.27;100.00;97369.28;4204963;28;20055;-79
2022/12/23 05:28:33;;;;;;;2.70;1.40;;;;;;;7.25;100.00;97369.66;4204861;28;20403;-79
2022/12/23 05:30:33;;;;;;;1.98;1.42;;;;;;;7.24;100.00;97370.84;4204379;28;20088;-78
2022/12/23 05:32:34;;;;;;;1.83;1.10;;;;;;;7.24;100.00;97362.59;4200627;28;20239;-80
2022/12/23 05:34:34;;;;;;;1.83;1.02;;;;;;;7.19;100.00;97365.69;4204095;28;20080;-79
2022/12/23 05:36:35;;;;;;;1.63;1.00;;;;;;;7.21;100.00;97363.38;4202989;28;20036;-78
2022/12/23 05:38:35;;;;;;;1.02;0.93;;;;;;;7.19;100.00;97365.69;4203583;28;20040;-79
2022/12/23 05:40:36;;;;;;;1.00;0.90;;;;;;;7.15;100.00;97364.09;4203922;28;20087;-79
2022/12/23 05:42:36;;;;;;;3.53;1.83;;;;;;;7.11;100.00;97364.06;4204715;28;20387;-79
2022/12/23 05:44:36;;;;;;;2.03;1.02;;;;;;;7.09;100.00;97362.88;4203845;28;20239;-79
2022/12/23 05:46:37;;;;;;;1.10;1.00;;;;;;;7.03;100.00;97360.50;4182846;28;20052;-79
2022/12/23 05:48:37;;;;;;;1.15;0.90;;;;;;;7.03;100.00;97363.25;4201866;28;20444;-79
2022/12/23 05:50:38;;;;;;;1.98;0.90;;;;;;;7.09;100.00;97373.88;4202818;28;20123;-79
2022/12/23 05:52:38;;;;;;;1.13;0.93;;;;;;;7.08;100.00;97375.84;4204189;28;20040;-79
2022/12/23 05:54:39;;;;;;;1.42;0.95;;;;;;;7.08;100.00;97383.31;4198925;28;20556;-79
2022/12/23 05:56:39;;;;;;;0.98;0.80;;;;;;;7.04;100.00;97392.31;4102777;27;20123;-78
2022/12/23 05:58:39;;;;;;;0.80;0.80;;;;;;;7.08;100.00;97397.06;4209400;28;20052;-79
2022/12/23 06:00:40;;;;;;;1.15;0.93;;;;;;;7.10;100.00;97394.69;4202666;28;20412;-79
2022/12/23 06:02:40;;;;;;;0.95;0.90;;;;;;;7.12;100.00;97404.19;4190267;28;20680;-79
2022/12/23 06:04:41;;;;;;;0.70;0.70;;;;;;;7.14;100.00;97399.06;4202649;28;20040;-79
2022/12/23 06:06:41;;;;;;;0.73;0.73;;;;;;;7.17;100.00;97395.56;4204876;28;20036;-78
2022/12/23 06:08:41;;;;;;;1.17;0.90;;;;;;;7.21;100.00;97392.84;4201490;28;20666;-78
2022/12/23 06:10:41;;;;;;;1.05;0.90;;;;;;;7.21;100.00;97410.13;4201893;28;20467;-79
2022/12/23 06:12:42;;;;;;;0.70;0.70;;;;;;;7.25;100.00;97418.41;4201910;28;20072;-79
2022/12/23 06:14:42;;;;;;;1.45;1.02;;;;;;;7.26;100.00;97417.22;4203497;28;20063;-79
2022/12/23 06:16:43;;;;;;;1.27;1.17;;;;;;;7.26;100.00;97419.97;4203711;28;20639;-79
2022/12/23 06:18:43;;;;;;;2.38;1.10;;;;;;;7.31;100.00;97425.13;4203646;28;20048;-78
2022/12/23 06:20:47;;;;;;;1.92;1.27;;;;;;;7.35;100.00;97434.19;4202533;28;20134;-79
2022/12/23 06:22:47;;;;;;;1.75;1.58;;;;;;;7.43;100.00;97437.78;4201386;28;20078;-79
2022/12/23 06:24:48;;;;;;;3.03;2.15;;;;;;;7.54;100.00;97436.72;4204420;28;20422;-78
2022/12/23 06:26:48;;;;;;;2.25;1.67;;;;;;;7.51;100.00;97442.97;4202854;28;20071;-79
2022/12/23 06:28:48;;;;;;;1.77;1.33;;;;;;;7.54;100.00;97442.22;4204207;28;20130;-78
2022/12/23 06:30:53;;;;;;;2.10;1.60;;;;;;;7.50;100.00;97435.88;4203129;28;20048;-79
2022/12/23 06:32:53;;;;;;;2.65;1.30;;;;;;;7.45;100.00;97435.47;4195397;28;20058;-78
2022/12/23 06:34:54;;;;;;;2.63;1.40;;;;;;;7.39;100.00;97425.97;4200973;28;20126;-79
2022/12/23 06:36:54;;;;;;;2.33;1.60;;;;;;;7.42;100.00;97434.25;4203947;28;20075;-79
2022/12/23 06:38:54;;;;;;;2.28;1.35;;;;;;;7.39;100.00;97434.25;4196172;28;20067;-79
2022/12/23 06:40:55;;;;;;;2.05;1.20;;;;;;;7.36;100.00;97437.72;4201405;28;20127;-79
2022/12/23 06:42:55;;;;;;;3.97;1.30;;;;;;;7.35;100.00;97430.66;4195678;28;20128;-79
2022/12/23 06:44:55;;;;;;;1.58;1.40;;;;;;;7.30;100.00;97429.84;4198761;28;20132;-79
2022/12/23 06:46:56;;;;;;;3.55;1.13;;;;;;;7.40;100.00;97436.59;4203661;28;20083;-79
2022/12/23 06:48:56;;;;;;;4.05;2.17;;;;;;;7.41;100.00;97426.38;4201562;28;20538;-79
2022/12/23 06:50:56;;;;;;;2.10;1.40;;;;;;;7.40;100.00;97433.06;4202756;28;20050;-79
2022/12/23 06:52:56;;;;;;;4.18;1.50;;;;;;;7.39;100.00;97437.78;4201206;28;20062;-79
2022/12/23 06:54:57;;;;;;;2.92;1.55;;;;;;;7.43;100.00;97448.81;4199424;28;20078;-79
2022/12/23 06:56:57;;;;;;;1.70;1.20;;;;;;;7.42;100.00;97453.50;4201716;28;20131;-79
2022/12/23 06:58:58;;;;;;;2.03;1.45;;;;;;;7.44;100.00;97451.16;4202626;28;20040;-79
2022/12/23 07:00:58;;;;;;;1.90;1.40;;;;;;;7.49;100.00;97456.31;4200110;28;20462;-79
2022/12/23 07:02:58;;;;;;;2.33;1.90;;;;;;;7.48;100.00;97446.50;4201922;28;20447;-78
2022/12/23 07:04:58;;;;;;;2.55;1.90;;;;;;;7.49;100.00;97450.81;4199125;28;20079;-78
2022/12/23 07:06:59;;;;;;;2.85;2.33;;;;;;;7.47;100.00;97455.91;4192942;28;20051;-79
2022/12/23 07:08:59;;;;;;;2.53;1.90;;;;;;;7.46;100.00;97467.31;4201817;28;20437;-79
2022/12/23 07:11:02;;;;;;;3.75;2.58;;;;;;;7.42;100.00;97467.28;4204317;28;20048;-79
2022/12/23 07:13:02;;;;;;;8.02;5.57;;;;;;;7.53;100.00;97470.09;4202240;28;20097;-79
2022/12/23 07:15:04;;;;;;;9.25;5.65;;;;;;;7.51;100.00;97469.69;4204675;28;20530;-78
2022/12/23 07:17:04;;;;;;;4.82;3.28;;;;;;;7.47;100.00;97479.91;4202719;28;20277;-79
2022/12/23 07:19:04;;;;;;;3.28;2.75;;;;;;;7.50;100.00;97477.16;4200183;28;20052;-78
2022/12/23 07:21:05;;;;;;;2.80;2.13;;;;;;;7.51;100.00;97483.47;4199594;28;20458;-79
2022/12/23 07:23:05;;;;;;;5.40;2.58;;;;;;;7.48;100.00;97493.28;4200074;28;20226;-79
2022/12/23 07:25:06;;;;;;;2.60;1.77;;;;;;;7.45;100.00;97496.00;4201509;28;20231;-79
2022/12/23 07:27:07;;;;;;;3.45;1.70;;;;;;;7.45;100.00;97504.28;4199204;28;20089;-79
2022/12/23 07:29:07;;;;;;;2.67;1.77;;;;;;;7.42;100.00;97502.25;4200392;28;20044;-79
2022/12/23 07:31:08;;;;;;;2.58;1.30;;;;;;;7.46;100.00;97503.88;4202180;28;20036;-79
2022/12/23 07:33:08;;;;;;;2.88;1.27;;;;;;;7.43;100.00;97501.88;4198730;28;20041;-79
2022/12/23 07:35:08;;;;;;;3.42;1.40;;;;;;;7.42;100.00;97497.53;4201732;28;20083;-79
2022/12/23 07:37:09;;;;;;;2.30;1.30;;;;;;;7.45;100.00;97502.31;4199509;28;20123;-79
2022/12/23 07:39:09;;;;;;;1.40;1.15;;;;;;;7.58;100.00;97508.28;4201689;28;20052;-79
2022/12/23 07:41:10;;;;;;;1.48;1.08;;;;;;;7.67;100.00;97505.22;4198878;28;20132;-79
2022/12/23 07:43:10;;;;;;;2.03;1.48;;;;;;;7.66;100.00;97506.38;4201131;28;20064;-79
2022/12/23 07:45:10;;;;;;;3.25;1.90;;;;;;;7.65;100.00;97513.84;4200544;28;20048;-79
2022/12/23 07:47:11;;;;;;;3.30;1.50;;;;;;;7.67;100.00;97516.22;4201650;28;20444;-79
2022/12/23 07:49:11;;;;;;;2.13;1.67;;;;;;;7.72;100.00;97519.41;4200408;28;20404;-79
2022/12/23 07:51:12;;;;;;;2.00;1.67;;;;;;;7.75;100.00;97515.88;4193615;28;20662;-79
2022/12/23 07:53:12;;;;;;;1.38;1.27;;;;;;;7.76;100.00;97508.41;4200131;28;20046;-79
2022/12/23 07:55:13;;;;;;;2.50;1.70;;;;;;;7.74;100.00;97505.25;4199050;28;20455;-79
2022/12/23 07:57:13;;;;;;;3.13;2.05;;;;;;;7.77;100.00;97508.03;4197828;28;20051;-79
2022/12/23 07:59:14;;;;;;;3.50;2.35;;;;;;;7.78;100.00;97503.34;4200189;28;20036;-78
2022/12/23 08:01:14;;;;;;;3.05;2.10;;;;;;;7.77;100.00;97498.97;4198611;28;20047;-79
2022/12/23 08:03:15;;;;;;;3.33;1.85;;;;;;;7.72;100.00;97482.84;4200115;28;20043;-79
2022/12/23 08:05:15;;;;;;;4.00;1.83;;;;;;;7.76;100.00;97497.41;4198863;28;20032;-79
2022/12/23 08:07:15;;;;;;;2.80;2.03;;;;;;;7.74;100.00;97497.78;4201161;28;20523;-78
2022/12/23 08:09:16;;;;;;;3.58;2.10;;;;;;;7.79;100.00;97496.66;4200138;28;20342;-79
2022/12/23 08:11:16;;;;;;;1.98;1.27;;;;;;;7.75;100.00;97490.31;4200529;28;20040;-79
2022/12/23 08:13:17;;;;;;;1.05;0.95;;;;;;;7.72;100.00;97493.84;4199791;28;20135;-79
2022/12/23 08:15:17;;;;;;;1.52;1.27;;;;;;;7.69;100.00;97487.13;4200158;28;20138;-79
2022/12/23 08:17:21;;;;;;;2.50;1.15;;;;;;;7.71;100.00;97493.06;4194861;28;20041;-79
2022/12/23 08:19:22;;;;;;;2.25;1.20;;;;;;;7.69;100.00;97486.34;4195469;28;20303;-79
2022/12/23 08:21:23;;;;;;;1.90;0.98;;;;;;;7.64;100.00;97495.75;4192110;28;20072;-79
2022/12/23 08:23:24;;;;;;;1.23;1.10;;;;;;;7.67;100.00;97486.72;4195972;28;20508;-80
2022/12/23 08:25:24;;;;;;;1.10;0.90;;;;;;;7.63;100.00;97491.44;4198425;28;20036;-79
2022/12/23 08:27:25;;;;;;;0.90;0.90;;;;;;;7.60;100.00;97490.22;4200773;28;20631;-79
2022/12/23 08:29:25;;;;;;;1.38;1.00;;;;;;;7.64;100.00;97497.72;4198632;28;20205;-79
2022/12/23 08:31:30;;;;;;;2.35;1.10;;;;;;;7.66;100.00;97500.88;4199279;28;20611;-79
2022/12/23 08:33:31;;;;;;;2.30;1.17;;;;;;;7.69;100.00;97505.59;4190311;28;20029;-79
2022/12/23 08:35:31;;;;;;;1.15;0.90;;;;;;;7.73;100.00;97517.44;4200605;28;20086;-79
2022/12/23 08:37:31;;;;;;;1.55;0.93;;;;;;;7.71;100.00;97520.59;4197926;28;20036;-79
2022/12/23 08:39:32;;;;;;;1.88;1.10;;;;;;;7.76;100.00;97536.75;4197195;28;20102;-79
2022/12/23 08:41:37;;;;;;;1.55;1.17;;;;;;;7.72;100.00;97532.41;4191479;28;20083;-79
2022/12/23 08:43:38;;;;;;;1.33;0.80;;;;;;;7.77;100.00;97541.06;4200448;28;20052;-79
2022/12/23 08:45:38;;;;;;;1.25;0.93;;;;;;;7.77;100.00;97554.06;4198498;28;20048;-79
2022/12/23 08:47:39;;;;;;;1.25;1.00;;;;;;;7.80;100.00;97554.09;4199794;28;20453;-80
2022/12/23 08:49:39;;;;;;;1.75;1.02;;;;;;;7.83;100.00;97550.56;4190754;28;20506;-79
2022/12/23 08:51:39;;;;;;;2.00;1.30;;;;;;;7.88;100.00;97555.72;4196745;28;20068;-79
2022/12/23 08:53:40;;;;;;;1.45;1.10;;;;;;;7.95;100.00;97565.22;4196845;28;20126;-79
2022/12/23 08:55:43;;;;;;;1.92;1.20;;;;;;;8.06;100.00;97560.56;4199569;28;20044;-79
2022/12/23 08:57:43;;;;;;;1.30;1.20;;;;;;;8.03;100.00;97564.88;4197562;28;20311;-79
2022/12/23 08:59:43;;;;;;;1.73;1.13;;;;;;;8.03;100.00;97561.34;4199312;28;20059;-79
2022/12/23 09:01:44;;;;;;;1.90;1.20;;;;;;;8.03;100.00;97559.38;4197768;28;20211;-79
2022/12/23 09:03:45;;;;;;;2.47;1.50;;;;;;;8.07;100.00;97565.69;4199039;28;20109;-79
2022/12/23 09:05:45;;;;;;;1.40;1.15;;;;;;;8.06;100.00;97577.09;4197184;28;20120;-79
2022/12/23 09:07:46;;;;;;;1.17;1.08;;;;;;;8.04;100.00;97573.94;4199817;28;20135;-79
2022/12/23 09:09:46;;;;;;;1.45;1.10;;;;;;;8.18;100.00;97582.28;4201489;28;20048;-79
2022/12/23 09:11:47;;;;;;;1.88;1.48;;;;;;;8.16;100.00;97579.13;4199689;28;20044;-79
2022/12/23 09:13:47;;;;;;;1.40;1.10;;;;;;;8.13;100.00;97568.88;4189715;28;20044;-78
2022/12/23 09:15:48;;;;;;;1.90;1.20;;;;;;;8.08;100.00;97563.72;4198111;28;20133;-79
2022/12/23 09:17:48;;;;;;;2.38;1.50;;;;;;;8.09;100.00;97571.59;4198484;28;20058;-79
2022/12/23 09:19:48;;;;;;;2.20;1.52;;;;;;;8.07;100.00;97571.19;4198374;28;20044;-79
2022/12/23 09:21:49;;;;;;;1.60;1.50;;;;;;;8.11;100.00;97565.72;4199532;28;20090;-79
2022/12/23 09:23:49;;;;;;;2.72;2.08;;;;;;;8.15;100.00;97561.81;4192845;28;20055;-79
2022/12/23 09:25:50;;;;;;;2.25;1.55;;;;;;;8.22;100.00;97557.53;4192880;28;20052;-79
2022/12/23 09:27:50;;;;;;;2.22;1.80;;;;;;;8.17;100.00;97550.41;4200852;28;20075;-79
2022/12/23 09:29:50;;;;;;;2.67;2.35;;;;;;;8.15;100.00;97561.81;4200215;28;20036;-79
2022/12/23 09:31:51;;;;;;;3.90;2.20;;;;;;;8.23;100.00;97554.38;4199675;28;20032;-79
2022/12/23 09:33:52;;;;;;;5.35;2.40;;;;;;;8.21;100.00;97559.50;4196552;28;20049;-79
2022/12/23 09:35:58;;;;;;;4.82;3.35;;;;;;;8.20;100.00;97566.19;4197185;28;20854;-79
2022/12/23 09:37:59;;;;;;;2.83;2.25;;;;;;;8.26;100.00;97563.81;4198473;28;20054;-79
2022/12/23 09:39:59;;;;;;;3.05;1.98;;;;;;;8.31;100.00;97574.50;4199390;28;20087;-79
2022/12/23 09:42:02;;;;;;;2.08;1.50;;;;;;;8.28;100.00;97570.56;4194732;28;20049;-79
2022/12/23 09:44:15;;;;;;;4.28;2.20;;;;;;;8.25;100.00;97581.53;4197538;28;20052;-78
2022/12/23 09:46:22;;;;;;;10.82;5.15;;;;;;;8.26;100.00;97580.38;4201795;28;20043;-79
2022/12/23 09:48:31;;;;;;;8.40;4.30;;;;;;;8.35;100.00;97575.31;4204497;28;20040;-79
2022/12/23 09:50:33;;;;;;;4.85;3.45;;;;;;;8.32;100.00;97571.34;4200992;28;20567;-79
2022/12/23 09:52:46;;;;;;;4.22;2.28;;;;;;;8.33;100.00;97569.38;4201000;28;20070;-79
2022/12/23 09:54:51;;;;;;;1.60;1.40;;;;;;;8.36;100.00;97568.66;4202983;28;20044;-79
2022/12/23 09:57:17;;;;;;;2.72;1.60;;;;;;;8.43;100.00;97569.47;4203238;28;20056;-79
2022/12/23 09:59:55;;;;;;;2.25;1.58;;;;;;;8.42;100.00;97556.88;4201661;28;20793;-79
2022/12/23 10:02:03;;;;;;;1.83;1.50;;;;;;;8.40;100.00;97559.22;4201626;28;20048;-79
2022/12/23 10:04:38;;;;;;;1.90;1.65;;;;;;;8.37;100.00;97557.25;4203772;28;20642;-78
2022/12/23 10:06:40;;;;;;;2.08;1.50;;;;;;;8.37;100.00;97567.50;4203684;28;20036;-79
2022/12/23 10:08:46;;;;;;;2.35;1.30;;;;;;;8.36;100.00;97565.91;4200856;28;20447;-79